Terminal Aerodrome Forecast
Issued by NWS Sterling, VA

Current Version | Previous Version | Graphics & Text | Print | Product List | Glossary On
Versions: 1 2 3 4 5 6 7 8 9 10 11 12 13 14 15 16 17 18 19 20 21 22 23
000
FTUS41 KLWX 021140
TAFMRB
TAF
KMRB 021140Z 0212/0312 15004KT 2SM BR OVC002
     FM021400 19005KT 3SM BR OVC003
     FM021600 26008KT P6SM BKN050
     FM030000 35005KT P6SM -SHRA OVC050
     FM030300 34004KT 3SM SHRA BR OVC025
     FM030500 01004KT 2SM SHRA BR OVC008=

USA.gov is the U.S. government's official web portal to all federal, state and local government web resources and services.